Flight Track Log - Related Links

Times and Time Zones

All times are in EDT time to prevent confusion due to time zone crossing. See the N604MC flight status page for this flight to view local times or setup timezone preferences in your user account.

Time Position Orientation Groundspeed Altitude Reporting Facility
EDT Latitude Longitude Course Direction KTS MPH feet Rate Location/Type
Mon 02:57:07 PM 37.4500 -121.9500 15° North 241 277 4,200  Level Northern Cal TRACON
Mon 02:58:08 PM 37.4167 -121.9000 130° Southeast 214 246 5,000 1,686 Climbing Northern Cal TRACON
Mon 02:59:08 PM 37.3667 -121.8333 133° Southeast 247 284 7,600 2,847 Climbing Northern Cal TRACON
Mon 03:00:06 PM 37.3186 -121.8161 164° South 257 296 10,600 3,000 Climbing Oakland Center
Mon 03:01:00 PM 37.4982 -121.2119 76° East  Level Estimated
Mon 03:01:08 PM 37.3019 -121.9083 257° West 311 358 13,600  Level Oakland Center
Mon 03:02:10 PM 37.3831 -121.9456 340° North 324 373 16,500 2,537 Climbing Oakland Center
Mon 03:03:11 PM 37.5008 -121.9592 355° North 348 400 18,800 2,146 Climbing Oakland Center
Mon 03:04:13 PM 37.6117 -121.9708 355° North 373 429 20,900 2,129 Climbing Oakland Center
Mon 03:05:15 PM 37.7256 -121.9806 356° North 403 464 23,200 2,032 Climbing Oakland Center
Mon 03:06:17 PM 37.8269 -121.9303 21° North 409 471 25,100 1,659 Climbing Oakland Center
Mon 03:07:18 PM 37.8678 -121.8011 68° East 397 457 26,600 1,463 Climbing Oakland Center
Mon 03:08:20 PM 37.9033 -121.6656 72° East 406 467 28,100 1,500 Climbing Oakland Center
Mon 03:09:22 PM 37.9472 -121.4972 72° East 418 481 29,700 1,403 Climbing Oakland Center
Mon 03:10:24 PM 37.9850 -121.3503 72° East 431 496 31,000 1,220 Climbing Oakland Center
Mon 03:11:25 PM 38.0219 -121.2039 72° East 439 505 32,200 1,073 Climbing Oakland Center
Mon 03:12:27 PM 38.0597 -121.0569 72° East 441 507 33,200 968 Climbing Oakland Center
Mon 03:13:29 PM 38.0872 -120.9050 77° East 445 512 34,200 919 Climbing Oakland Center
Mon 03:14:31 PM 38.1058 -120.7511 81° East 445 512 35,100 1,016 Climbing Oakland Center
Mon 03:15:33 PM 38.1303 -120.5664 80° East 444 511 36,300 927 Climbing Oakland Center
Mon 03:16:34 PM 38.1503 -120.4139 80° East 441 507 37,000 341 Climbing Oakland Center
Mon 03:17:36 PM 38.1700 -120.2572 81° East 450 518 37,000  Level Oakland Center
Mon 03:18:38 PM 38.1917 -120.0947 80° East 464 534 37,000  Level Oakland Center
Mon 03:19:40 PM 38.2117 -119.9308 81° East 470 541 37,000  Level Oakland Center
Mon 03:20:42 PM 38.2331 -119.7675 80° East 469 540 37,000  Level Oakland Center
Mon 03:21:44 PM 38.2539 -119.6036 81° East 471 542 37,000  Level Oakland Center
Mon 03:22:45 PM 38.2744 -119.4239 82° East 472 543 37,000  Level Oakland Center
Mon 03:23:47 PM 38.2942 -119.2589 81° East 475 547 37,000  Level Oakland Center
Mon 03:24:49 PM 38.3181 -119.0619 81° East 472 543 37,000  Level Oakland Center
Mon 03:25:51 PM 38.3375 -118.8983 81° East 470 541 37,000  Level Oakland Center
Mon 03:26:53 PM 38.3561 -118.7331 82° East 473 544 37,000  Level Oakland Center
Mon 03:27:55 PM 38.3747 -118.5694 82° East 471 542 37,000  Level Oakland Center
Mon 03:28:56 PM 38.3939 -118.4036 82° East 473 544 37,000  Level Oakland Center
Mon 03:29:58 PM 38.4117 -118.2400 82° East 470 541 37,000  Level Oakland Center
Mon 03:31:00 PM 38.4325 -118.0483 82° East 472 543 37,000  Level Oakland Center
Mon 03:32:02 PM 38.4506 -117.8819 82° East 473 544 37,000  Level Oakland Center
Mon 03:33:03 PM 38.4681 -117.7142 82° East 475 547 37,000  Level Oakland Center
Mon 03:34:12 PM 38.4889 -117.5119 82° East 475 547 37,000  Level Salt Lake Center
Mon 03:35:07 PM 38.5028 -117.3789 82° East 473 544 37,000  Level Oakland Center
Mon 03:36:09 PM 38.5206 -117.2097 82° East 474 545 37,000  Level Oakland Center
Mon 03:37:10 PM 38.5378 -117.0375 83° East 482 555 37,000  Level Oakland Center
Mon 03:38:12 PM 38.5542 -116.8672 83° East 481 554 37,000  Level Oakland Center
Mon 03:39:14 PM 38.5703 -116.6978 83° East 479 551 37,000  Level Oakland Center
Mon 03:40:15 PM 38.5894 -116.4947 83° East 479 551 37,000  Level Oakland Center
Mon 03:41:17 PM 38.6058 -116.3242 83° East 481 554 37,000  Level Oakland Center
Mon 03:42:19 PM 38.6219 -116.1528 83° East 484 557 37,000  Level Oakland Center
Mon 03:43:30 PM 38.6400 -115.9475 84° East 486 559 37,000  Level Salt Lake Center
Mon 03:44:32 PM 38.6550 -115.7736 84° East 490 564 37,000  Level Salt Lake Center
Mon 03:45:34 PM 38.6694 -115.5997 84° East 492 566 37,000  Level Salt Lake Center
Mon 03:46:36 PM 38.6847 -115.4269 83° East 491 565 37,000  Level Salt Lake Center
Mon 03:47:38 PM 38.7117 -115.2289 80° East 493 567 37,000  Level Salt Lake Center
Mon 03:48:40 PM 38.7506 -115.0558 74° East 500 575 37,000  Level Salt Lake Center
Mon 03:49:42 PM 38.7878 -114.8839 74° East 501 577 37,000  Level Salt Lake Center
Mon 03:50:44 PM 38.8242 -114.7117 75° East 500 575 37,000  Level Salt Lake Center
Mon 03:51:46 PM 38.8617 -114.5378 74° East 504 580 37,000  Level Salt Lake Center
Mon 03:52:48 PM 38.8961 -114.3678 75° East 495 570 37,000  Level Salt Lake Center
Mon 03:53:51 PM 38.9347 -114.1681 76° East 483 556 37,000  Level Salt Lake Center
Mon 03:54:53 PM 38.9669 -114.0008 76° East 482 555 37,000 -242 Level Salt Lake Center
Mon 03:55:55 PM 39.0000 -113.8306 76° East 488 562 36,500 -726 Descending Salt Lake Center
Mon 03:56:57 PM 39.0158 -113.6594 83° East 486 559 35,500 -726 Descending Salt Lake Center
Mon 03:57:59 PM 39.0206 -113.4922 88° East 473 544 35,000 -242 Descending Salt Lake Center
Mon 03:59:01 PM 39.0250 -113.3272 88° East 465 535 35,000  Level Salt Lake Center
Mon 04:00:03 PM 39.0300 -113.1569 88° East 470 541 35,000  Level Salt Lake Center
Mon 04:01:05 PM 39.0353 -112.9506 88° East 479 551 35,000  Level Salt Lake Center
Mon 04:02:07 PM 39.0389 -112.7803 88° East 476 548 35,000  Level Salt Lake Center
Mon 04:03:09 PM 39.0556 -112.6100 83° East 480 552 35,000  Level Salt Lake Center
Mon 04:04:11 PM 39.0753 -112.4400 81° East 480 552 35,000  Level Salt Lake Center
Mon 04:05:13 PM 39.0956 -112.2708 81° East 479 551 35,000  Level Salt Lake Center
Mon 04:06:15 PM 39.1147 -112.1011 82° East 479 551 35,000  Level Salt Lake Center
Mon 04:07:17 PM 39.1378 -111.8969 82° East 480 552 35,000  Level Salt Lake Center
Mon 04:08:19 PM 39.1453 -111.7244 87° East 481 554 35,000  Level Salt Lake Center
Mon 04:09:21 PM 39.1417 -111.5517 91° East 482 555 35,000 -290 Level Salt Lake Center
Mon 04:10:23 PM 39.1383 -111.3775 91° East 485 558 34,400 -1,548 Descending Salt Lake Center
Mon 04:11:25 PM 39.1328 -111.1969 92° East 472 543 31,800 -2,323 Descending Salt Lake Center
Mon 04:12:27 PM 39.1300 -111.0422 91° East 457 526 29,600 -2,274 Descending Salt Lake Center
Mon 04:13:29 PM 39.1261 -110.8669 92° East 442 509 27,100 -2,177 Descending Salt Lake Center
Mon 04:14:31 PM 39.1233 -110.7208 91° East 430 495 25,100 -1,016 Descending Salt Lake Center
Mon 04:15:33 PM 39.1208 -110.5589 91° East 408 470 25,000 -194 Descending Salt Lake Center
Mon 04:16:35 PM 39.1169 -110.4156 92° East 416 479 24,700 -968 Descending Salt Lake Center
Mon 04:17:37 PM 39.1122 -110.2386 92° East 439 505 23,000 -1,548 Descending Salt Lake Center
Mon 04:18:39 PM 39.1072 -110.0883 92° East 441 507 21,500 -1,403 Descending Salt Lake Center
Mon 04:19:41 PM 39.1022 -109.9250 92° East 417 480 20,100 -1,161 Descending Salt Lake Center
Mon 04:20:43 PM 39.0908 -109.7931 96° East 402 463 19,100 -1,015 Descending Salt Lake Center
Mon 04:21:57 PM 39.0717 -109.6253 98° East 376 433 17,800 -980 Descending Denver Center
Mon 04:23:59 PM 39.0667 -109.3500 91° East 359 413 15,900 -931 Descending Denver TRACON
Mon 04:24:51 PM 39.0675 -109.2592 89° East 360 414 15,100 -1,158 Descending Salt Lake Center
Mon 04:25:53 PM 39.0656 -109.1392 91° East 356 410 13,700 -1,500 Descending Salt Lake Center
Mon 04:26:55 PM 39.0639 -109.0100 91° East 341 392 12,000 -1,500 Descending Salt Lake Center
Mon 04:27:57 PM 39.0611 -108.9172 92° East 303 349 10,600 -1,258 Descending Salt Lake Center
Mon 04:28:59 PM 39.0653 -108.8164 87° East 272 313 9,400 -726 Descending Salt Lake Center
Mon 04:30:01 PM 39.0778 -108.7386 78° East 249 287 9,100 -1,007 Descending Salt Lake Center
Mon 04:31:16 PM 39.0939 -108.6367 78° East 206 237 7,100 -1,095 Descending Denver Center
Mon 04:32:18 PM 39.0878 -108.5603 96° East 210 242 6,600 -532 Descending Denver Center
Mon 04:33:20 PM 39.0692 -108.4944 110° East 214 246 6,000 -629 Descending Denver Center
Mon 04:34:22 PM 39.1067 -108.4933 North 175 201 5,300 -532 Descending Denver Center
Mon 04:35:24 PM 39.1281 -108.5311 306° West 157 181 4,900 -387 Descending Denver Center

Login

Don't have an account? Register now (free) for customized features, flight alerts, and more!